sensor_id;sensor_type;location;lat;lon;timestamp;pressure;altitude;pressure_sealevel;temperature;humidity
84677;BME280;74901;55.024;73.254;2023-12-20T00:00:04;100933.97;;;-12.02;71.86
84677;BME280;74901;55.024;73.254;2023-12-20T00:02:52;100947.31;;;-11.97;72.00
84677;BME280;74901;55.024;73.254;2023-12-20T00:05:30;100932.84;;;-12.06;72.75
84677;BME280;74901;55.024;73.254;2023-12-20T00:08:00;100949.41;;;-11.99;72.22
84677;BME280;74901;55.024;73.254;2023-12-20T00:10:57;100942.81;;;-11.96;72.26
84677;BME280;74901;55.024;73.254;2023-12-20T00:13:34;100947.88;;;-11.83;72.59
84677;BME280;74901;55.024;73.254;2023-12-20T00:16:18;100950.97;;;-11.74;72.06
84677;BME280;74901;55.024;73.254;2023-12-20T00:18:47;100943.84;;;-11.74;72.46
84677;BME280;74901;55.024;73.254;2023-12-20T00:21:19;100939.34;;;-11.73;72.33
84677;BME280;74901;55.024;73.254;2023-12-20T00:23:48;100944.22;;;-11.65;72.09
84677;BME280;74901;55.024;73.254;2023-12-20T00:26:20;100930.03;;;-11.59;71.94
84677;BME280;74901;55.024;73.254;2023-12-20T00:28:49;100941.31;;;-11.52;72.19
84677;BME280;74901;55.024;73.254;2023-12-20T00:31:18;100928.63;;;-11.50;72.04
84677;BME280;74901;55.024;73.254;2023-12-20T00:33:47;100931.94;;;-11.43;72.20
84677;BME280;74901;55.024;73.254;2023-12-20T00:36:21;100836.50;;;-12.00;71.75
84677;BME280;74901;55.024;73.254;2023-12-20T00:38:50;100943.16;;;-11.24;71.72
84677;BME280;74901;55.024;73.254;2023-12-20T00:41:22;100941.97;;;-11.17;71.74
84677;BME280;74901;55.024;73.254;2023-12-20T00:43:51;100947.53;;;-11.18;72.10
84677;BME280;74901;55.024;73.254;2023-12-20T00:46:22;100943.34;;;-11.14;72.00
84677;BME280;74901;55.024;73.254;2023-12-20T00:48:53;100933.53;;;-11.14;71.94
84677;BME280;74901;55.024;73.254;2023-12-20T00:55:03;100936.38;;;-11.32;72.69
84677;BME280;74901;55.024;73.254;2023-12-20T00:57:35;100942.75;;;-11.16;72.38
84677;BME280;74901;55.024;73.254;2023-12-20T01:00:29;100914.06;;;-11.19;72.17
84677;BME280;74901;55.024;73.254;2023-12-20T01:03:17;100944.44;;;-10.98;71.96
84677;BME280;74901;55.024;73.254;2023-12-20T01:05:50;100941.59;;;-10.92;71.71
84677;BME280;74901;55.024;73.254;2023-12-20T01:08:19;100947.47;;;-10.90;71.87
84677;BME280;74901;55.024;73.254;2023-12-20T01:10:52;100939.13;;;-10.82;72.12
84677;BME280;74901;55.024;73.254;2023-12-20T01:13:27;100940.47;;;-10.79;72.27
84677;BME280;74901;55.024;73.254;2023-12-20T01:15:56;100940.81;;;-10.76;71.90
84677;BME280;74901;55.024;73.254;2023-12-20T01:18:25;100945.09;;;-10.75;72.55
84677;BME280;74901;55.024;73.254;2023-12-20T01:21:01;100931.31;;;-10.72;72.36
84677;BME280;74901;55.024;73.254;2023-12-20T01:23:51;100936.78;;;-10.78;72.11
84677;BME280;74901;55.024;73.254;2023-12-20T01:26:45;100941.63;;;-10.75;72.16
84677;BME280;74901;55.024;73.254;2023-12-20T01:29:24;100945.97;;;-10.69;72.40
84677;BME280;74901;55.024;73.254;2023-12-20T01:31:52;100948.06;;;-10.71;72.49
84677;BME280;74901;55.024;73.254;2023-12-20T01:34:22;100953.44;;;-10.66;73.00
84677;BME280;74901;55.024;73.254;2023-12-20T01:36:51;100951.59;;;-10.66;72.44
84677;BME280;74901;55.024;73.254;2023-12-20T01:39:20;100959.09;;;-10.62;72.46
84677;BME280;74901;55.024;73.254;2023-12-20T01:41:51;100960.53;;;-10.55;72.83
84677;BME280;74901;55.024;73.254;2023-12-20T01:44:20;100957.69;;;-10.48;72.65
84677;BME280;74901;55.024;73.254;2023-12-20T01:46:49;100959.31;;;-10.47;72.65
84677;BME280;74901;55.024;73.254;2023-12-20T01:49:21;100954.00;;;-10.47;73.08
84677;BME280;74901;55.024;73.254;2023-12-20T01:51:51;100957.00;;;-10.44;72.74
84677;BME280;74901;55.024;73.254;2023-12-20T01:54:22;100957.81;;;-10.43;72.75
84677;BME280;74901;55.024;73.254;2023-12-20T01:56:53;100937.81;;;-10.46;72.60
84677;BME280;74901;55.024;73.254;2023-12-20T01:59:22;100959.88;;;-10.29;72.66
84677;BME280;74901;55.024;73.254;2023-12-20T02:01:54;100951.25;;;-10.19;72.32
84677;BME280;74901;55.024;73.254;2023-12-20T02:04:25;100959.22;;;-10.19;72.82
84677;BME280;74901;55.024;73.254;2023-12-20T02:06:59;100961.34;;;-10.16;72.37
84677;BME280;74901;55.024;73.254;2023-12-20T02:09:29;100957.66;;;-10.15;72.28
84677;BME280;74901;55.024;73.254;2023-12-20T02:12:06;100961.69;;;-10.12;73.13
84677;BME280;74901;55.024;73.254;2023-12-20T02:14:35;100954.47;;;-10.12;72.45
84677;BME280;74901;55.024;73.254;2023-12-20T02:17:06;100966.09;;;-10.01;72.99
84677;BME280;74901;55.024;73.254;2023-12-20T02:19:36;100955.13;;;-10.05;72.85
84677;BME280;74901;55.024;73.254;2023-12-20T02:22:08;100968.00;;;-9.97;72.89
84677;BME280;74901;55.024;73.254;2023-12-20T02:24:38;100968.75;;;-10.01;73.08
84677;BME280;74901;55.024;73.254;2023-12-20T02:27:11;100970.66;;;-9.97;73.38
84677;BME280;74901;55.024;73.254;2023-12-20T02:29:40;100960.31;;;-9.93;72.95
84677;BME280;74901;55.024;73.254;2023-12-20T02:32:12;100966.28;;;-9.86;72.79
84677;BME280;74901;55.024;73.254;2023-12-20T02:34:46;100966.03;;;-9.85;72.48
84677;BME280;74901;55.024;73.254;2023-12-20T02:37:23;100955.34;;;-9.90;72.89
84677;BME280;74901;55.024;73.254;2023-12-20T02:40:02;100978.41;;;-9.73;72.46
84677;BME280;74901;55.024;73.254;2023-12-20T02:42:45;100982.75;;;-9.67;72.44
84677;BME280;74901;55.024;73.254;2023-12-20T02:45:18;100975.56;;;-9.67;72.93
84677;BME280;74901;55.024;73.254;2023-12-20T02:48:17;100985.16;;;-9.66;72.92
84677;BME280;74901;55.024;73.254;2023-12-20T02:51:08;100985.00;;;-9.59;72.54
84677;BME280;74901;55.024;73.254;2023-12-20T02:53:41;100988.75;;;-9.55;72.42
84677;BME280;74901;55.024;73.254;2023-12-20T02:56:10;100995.75;;;-9.49;72.62
84677;BME280;74901;55.024;73.254;2023-12-20T02:58:40;100993.13;;;-9.44;72.41
84677;BME280;74901;55.024;73.254;2023-12-20T03:01:10;100996.19;;;-9.35;72.78
84677;BME280;74901;55.024;73.254;2023-12-20T03:03:38;100996.03;;;-9.24;72.56
84677;BME280;74901;55.024;73.254;2023-12-20T03:06:08;100996.63;;;-9.22;71.94
84677;BME280;74901;55.024;73.254;2023-12-20T03:08:38;101012.69;;;-9.12;71.79
84677;BME280;74901;55.024;73.254;2023-12-20T03:11:08;101005.56;;;-9.06;71.45
84677;BME280;74901;55.024;73.254;2023-12-20T03:13:37;101001.41;;;-8.97;71.83
84677;BME280;74901;55.024;73.254;2023-12-20T03:16:09;100996.94;;;-8.91;71.58
84677;BME280;74901;55.024;73.254;2023-12-20T03:18:38;100994.56;;;-8.88;71.42
84677;BME280;74901;55.024;73.254;2023-12-20T03:21:09;100987.94;;;-8.85;71.65
84677;BME280;74901;55.024;73.254;2023-12-20T03:23:42;100997.88;;;-8.76;71.61
84677;BME280;74901;55.024;73.254;2023-12-20T03:26:13;101003.31;;;-8.66;71.45
84677;BME280;74901;55.024;73.254;2023-12-20T03:28:57;101007.38;;;-8.58;71.68
84677;BME280;74901;55.024;73.254;2023-12-20T03:31:29;101006.63;;;-8.53;71.13
84677;BME280;74901;55.024;73.254;2023-12-20T03:33:58;100987.06;;;-8.64;71.65
84677;BME280;74901;55.024;73.254;2023-12-20T03:36:30;101005.88;;;-8.44;71.52
84677;BME280;74901;55.024;73.254;2023-12-20T03:39:01;100996.75;;;-8.53;71.75
84677;BME280;74901;55.024;73.254;2023-12-20T03:41:30;101013.34;;;-8.46;71.90
84677;BME280;74901;55.024;73.254;2023-12-20T03:43:59;100998.66;;;-8.48;71.71
84677;BME280;74901;55.024;73.254;2023-12-20T03:46:28;101007.81;;;-8.39;72.13
84677;BME280;74901;55.024;73.254;2023-12-20T03:48:57;101009.06;;;-8.47;71.96
84677;BME280;74901;55.024;73.254;2023-12-20T03:51:27;101020.66;;;-8.31;71.84
84677;BME280;74901;55.024;73.254;2023-12-20T03:54:01;101021.47;;;-8.26;72.13
84677;BME280;74901;55.024;73.254;2023-12-20T03:56:31;101028.16;;;-8.23;71.81
84677;BME280;74901;55.024;73.254;2023-12-20T03:59:00;101019.06;;;-8.27;71.63
84677;BME280;74901;55.024;73.254;2023-12-20T04:01:33;101034.91;;;-8.15;71.48
84677;BME280;74901;55.024;73.254;2023-12-20T04:04:52;101015.91;;;-8.19;71.52
84677;BME280;74901;55.024;73.254;2023-12-20T04:07:26;101033.13;;;-8.00;70.81
84677;BME280;74901;55.024;73.254;2023-12-20T04:10:14;101033.09;;;-8.05;71.84
84677;BME280;74901;55.024;73.254;2023-12-20T04:12:43;101041.13;;;-8.00;71.33
84677;BME280;74901;55.024;73.254;2023-12-20T04:15:13;101039.31;;;-7.94;71.18
84677;BME280;74901;55.024;73.254;2023-12-20T04:17:50;101036.38;;;-7.93;70.82
84677;BME280;74901;55.024;73.254;2023-12-20T04:20:19;101045.00;;;-7.81;71.08
84677;BME280;74901;55.024;73.254;2023-12-20T04:22:51;101027.94;;;-7.80;71.41
84677;BME280;74901;55.024;73.254;2023-12-20T04:25:28;101040.53;;;-7.65;71.10
84677;BME280;74901;55.024;73.254;2023-12-20T04:27:57;101050.44;;;-7.65;71.07
84677;BME280;74901;55.024;73.254;2023-12-20T04:30:26;101041.91;;;-7.62;71.19
84677;BME280;74901;55.024;73.254;2023-12-20T04:33:00;101062.47;;;-7.58;70.86
84677;BME280;74901;55.024;73.254;2023-12-20T04:35:40;101059.34;;;-7.50;70.87
84677;BME280;74901;55.024;73.254;2023-12-20T04:38:13;101071.16;;;-7.36;70.58
84677;BME280;74901;55.024;73.254;2023-12-20T04:40:44;101062.13;;;-7.29;70.53
84677;BME280;74901;55.024;73.254;2023-12-20T04:43:17;101066.41;;;-7.28;70.52
84677;BME280;74901;55.024;73.254;2023-12-20T04:45:47;101073.38;;;-7.17;70.32
84677;BME280;74901;55.024;73.254;2023-12-20T04:48:16;101063.47;;;-7.22;70.31
84677;BME280;74901;55.024;73.254;2023-12-20T04:50:46;101074.47;;;-7.13;70.33
84677;BME280;74901;55.024;73.254;2023-12-20T04:53:15;101071.25;;;-7.15;70.31
84677;BME280;74901;55.024;73.254;2023-12-20T04:55:46;101075.25;;;-7.18;70.74
84677;BME280;74901;55.024;73.254;2023-12-20T04:58:15;101050.56;;;-7.40;70.67
84677;BME280;74901;55.024;73.254;2023-12-20T05:00:48;101076.34;;;-7.09;70.30
84677;BME280;74901;55.024;73.254;2023-12-20T05:03:17;101082.00;;;-7.00;70.28
84677;BME280;74901;55.024;73.254;2023-12-20T05:05:49;101082.00;;;-6.95;69.71
84677;BME280;74901;55.024;73.254;2023-12-20T05:08:19;101083.63;;;-6.94;70.28
84677;BME280;74901;55.024;73.254;2023-12-20T05:10:55;101070.75;;;-7.02;70.20
84677;BME280;74901;55.024;73.254;2023-12-20T05:13:26;101084.69;;;-6.90;69.71
84677;BME280;74901;55.024;73.254;2023-12-20T05:15:55;101067.34;;;-6.92;70.27
84677;BME280;74901;55.024;73.254;2023-12-20T05:18:26;101075.06;;;-6.91;70.14
84677;BME280;74901;55.024;73.254;2023-12-20T05:20:55;101078.84;;;-6.92;70.46
84677;BME280;74901;55.024;73.254;2023-12-20T05:23:24;101075.38;;;-6.87;69.92
84677;BME280;74901;55.024;73.254;2023-12-20T05:25:55;101083.38;;;-6.87;70.50
84677;BME280;74901;55.024;73.254;2023-12-20T05:28:24;101081.53;;;-6.87;70.32
84677;BME280;74901;55.024;73.254;2023-12-20T05:30:53;101071.34;;;-6.85;70.01
84677;BME280;74901;55.024;73.254;2023-12-20T05:33:24;101082.63;;;-6.73;69.86
84677;BME280;74901;55.024;73.254;2023-12-20T05:35:53;101077.81;;;-6.66;69.95
84677;BME280;74901;55.024;73.254;2023-12-20T05:38:22;101074.34;;;-6.71;69.83
84677;BME280;74901;55.024;73.254;2023-12-20T05:40:51;101079.19;;;-6.63;69.99
84677;BME280;74901;55.024;73.254;2023-12-20T05:43:24;101074.38;;;-6.61;69.79
84677;BME280;74901;55.024;73.254;2023-12-20T05:45:53;101068.47;;;-6.58;70.11
84677;BME280;74901;55.024;73.254;2023-12-20T05:48:23;101073.59;;;-6.46;69.81
84677;BME280;74901;55.024;73.254;2023-12-20T05:50:52;101065.84;;;-6.38;69.84
84677;BME280;74901;55.024;73.254;2023-12-20T05:53:21;101075.47;;;-6.22;69.61
84677;BME280;74901;55.024;73.254;2023-12-20T05:55:51;101071.75;;;-6.21;69.50
84677;BME280;74901;55.024;73.254;2023-12-20T05:58:22;101074.69;;;-6.17;69.47
84677;BME280;74901;55.024;73.254;2023-12-20T06:00:54;101085.41;;;-6.07;69.28
84677;BME280;74901;55.024;73.254;2023-12-20T06:03:23;101088.63;;;-6.05;69.31
84677;BME280;74901;55.024;73.254;2023-12-20T06:05:52;101092.63;;;-6.02;69.26
84677;BME280;74901;55.024;73.254;2023-12-20T06:08:21;101095.59;;;-5.99;69.59
84677;BME280;74901;55.024;73.254;2023-12-20T06:10:51;101092.91;;;-5.99;69.62
84677;BME280;74901;55.024;73.254;2023-12-20T06:13:22;101093.97;;;-6.00;69.71
84677;BME280;74901;55.024;73.254;2023-12-20T06:15:55;101094.50;;;-5.93;69.40
84677;BME280;74901;55.024;73.254;2023-12-20T06:18:29;101088.34;;;-5.88;69.27
84677;BME280;74901;55.024;73.254;2023-12-20T06:21:05;101088.31;;;-5.83;69.21
84677;BME280;74901;55.024;73.254;2023-12-20T06:23:35;101095.00;;;-5.76;69.04
84677;BME280;74901;55.024;73.254;2023-12-20T06:26:07;101100.09;;;-5.74;68.96
84677;BME280;74901;55.024;73.254;2023-12-20T06:28:49;101100.34;;;-5.76;68.88
84677;BME280;74901;55.024;73.254;2023-12-20T06:31:20;101097.41;;;-5.79;68.99
84677;BME280;74901;55.024;73.254;2023-12-20T06:33:49;101100.09;;;-5.74;68.93
84677;BME280;74901;55.024;73.254;2023-12-20T06:36:26;101095.81;;;-5.80;69.05
84677;BME280;74901;55.024;73.254;2023-12-20T06:38:55;101093.97;;;-5.90;69.19
84677;BME280;74901;55.024;73.254;2023-12-20T06:41:24;101105.22;;;-5.93;69.39
84677;BME280;74901;55.024;73.254;2023-12-20T06:43:55;101104.13;;;-5.92;68.89
84677;BME280;74901;55.024;73.254;2023-12-20T06:46:25;101115.13;;;-5.93;68.89
84677;BME280;74901;55.024;73.254;2023-12-20T06:48:54;101112.66;;;-5.85;68.74
84677;BME280;74901;55.024;73.254;2023-12-20T06:51:24;101114.81;;;-5.72;68.54
84677;BME280;74901;55.024;73.254;2023-12-20T06:53:53;101116.13;;;-5.59;68.45
84677;BME280;74901;55.024;73.254;2023-12-20T06:56:28;101106.78;;;-5.56;67.97
84677;BME280;74901;55.024;73.254;2023-12-20T06:58:59;101118.25;;;-5.46;68.16
84677;BME280;74901;55.024;73.254;2023-12-20T07:01:34;101102.72;;;-5.44;68.01
84677;BME280;74901;55.024;73.254;2023-12-20T07:04:06;101107.50;;;-5.36;67.74
84677;BME280;74901;55.024;73.254;2023-12-20T07:06:42;101109.94;;;-5.39;67.86
84677;BME280;74901;55.024;73.254;2023-12-20T07:09:13;101112.91;;;-5.46;68.03
84677;BME280;74901;55.024;73.254;2023-12-20T07:11:46;101114.53;;;-5.50;67.96
84677;BME280;74901;55.024;73.254;2023-12-20T07:14:17;101113.72;;;-5.50;68.22
84677;BME280;74901;55.024;73.254;2023-12-20T07:16:49;101124.44;;;-5.45;68.19
84677;BME280;74901;55.024;73.254;2023-12-20T07:19:20;101127.91;;;-5.45;68.13
84677;BME280;74901;55.024;73.254;2023-12-20T07:21:50;101122.00;;;-5.47;67.97
84677;BME280;74901;55.024;73.254;2023-12-20T07:24:21;101135.94;;;-5.45;68.35
84677;BME280;74901;55.024;73.254;2023-12-20T07:26:52;101142.63;;;-5.42;67.81
84677;BME280;74901;55.024;73.254;2023-12-20T07:29:43;101138.63;;;-5.40;67.90
84677;BME280;74901;55.024;73.254;2023-12-20T07:32:12;101138.06;;;-5.42;67.87
84677;BME280;74901;55.024;73.254;2023-12-20T07:34:41;101126.84;;;-5.59;67.96
84677;BME280;74901;55.024;73.254;2023-12-20T07:37:11;101130.06;;;-5.57;68.01
84677;BME280;74901;55.024;73.254;2023-12-20T07:39:41;101135.44;;;-5.62;68.23
84677;BME280;74901;55.024;73.254;2023-12-20T07:42:13;101148.53;;;-5.60;68.26
84677;BME280;74901;55.024;73.254;2023-12-20T07:44:44;101138.88;;;-5.61;67.93
84677;BME280;74901;55.024;73.254;2023-12-20T07:47:16;101132.19;;;-5.59;68.15
84677;BME280;74901;55.024;73.254;2023-12-20T07:49:48;101118.53;;;-5.67;68.35
84677;BME280;74901;55.024;73.254;2023-12-20T07:52:19;101135.94;;;-5.55;68.45
84677;BME280;74901;55.024;73.254;2023-12-20T07:54:49;101125.50;;;-5.51;68.13
84677;BME280;74901;55.024;73.254;2023-12-20T07:57:18;101127.13;;;-5.50;68.00
84677;BME280;74901;55.024;73.254;2023-12-20T07:59:49;101130.88;;;-5.51;67.92
84677;BME280;74901;55.024;73.254;2023-12-20T08:02:19;101131.94;;;-5.52;68.06
84677;BME280;74901;55.024;73.254;2023-12-20T08:04:48;101138.63;;;-5.50;67.89
84677;BME280;74901;55.024;73.254;2023-12-20T08:07:17;101137.00;;;-5.46;67.89
84677;BME280;74901;55.024;73.254;2023-12-20T08:09:46;101147.97;;;-5.42;67.53
84677;BME280;74901;55.024;73.254;2023-12-20T08:12:15;101138.91;;;-5.51;68.16
84677;BME280;74901;55.024;73.254;2023-12-20T08:18:06;101139.19;;;-5.63;67.89
84677;BME280;74901;55.024;73.254;2023-12-20T08:20:35;101134.63;;;-5.62;67.47
84677;BME280;74901;55.024;73.254;2023-12-20T08:23:04;101136.22;;;-5.72;68.01
84677;BME280;74901;55.024;73.254;2023-12-20T08:25:33;101143.19;;;-5.65;67.78
84677;BME280;74901;55.024;73.254;2023-12-20T08:28:04;101141.31;;;-5.70;68.04
84677;BME280;74901;55.024;73.254;2023-12-20T08:30:33;101131.13;;;-5.73;67.91
84677;BME280;74901;55.024;73.254;2023-12-20T08:33:04;101127.94;;;-5.75;67.70
84677;BME280;74901;55.024;73.254;2023-12-20T08:35:48;101146.13;;;-5.77;68.11
84677;BME280;74901;55.024;73.254;2023-12-20T08:38:17;101138.91;;;-5.66;67.61
84677;BME280;74901;55.024;73.254;2023-12-20T08:40:49;101122.84;;;-5.72;67.84
84677;BME280;74901;55.024;73.254;2023-12-20T08:43:47;101138.38;;;-5.63;67.71
84677;BME280;74901;55.024;73.254;2023-12-20T08:46:28;101134.63;;;-5.73;68.20
84677;BME280;74901;55.024;73.254;2023-12-20T08:52:41;101150.44;;;-5.76;67.94
84677;BME280;74901;55.024;73.254;2023-12-20T08:55:10;101157.66;;;-5.82;68.11
84677;BME280;74901;55.024;73.254;2023-12-20T08:57:39;101159.78;;;-5.79;68.14
84677;BME280;74901;55.024;73.254;2023-12-20T09:00:15;101165.16;;;-5.84;68.14
84677;BME280;74901;55.024;73.254;2023-12-20T09:02:49;101170.78;;;-5.90;68.26
84677;BME280;74901;55.024;73.254;2023-12-20T09:05:18;101172.91;;;-5.92;68.19
84677;BME280;74901;55.024;73.254;2023-12-20T09:07:52;101173.72;;;-5.97;68.08
84677;BME280;74901;55.024;73.254;2023-12-20T09:10:21;101172.91;;;-6.02;68.31
84677;BME280;74901;55.024;73.254;2023-12-20T09:12:51;101167.31;;;-6.11;68.41
84677;BME280;74901;55.024;73.254;2023-12-20T09:15:26;101162.72;;;-6.21;68.59
84677;BME280;74901;55.024;73.254;2023-12-20T09:17:57;101152.56;;;-6.24;68.43
84677;BME280;74901;55.024;73.254;2023-12-20T09:20:25;101153.63;;;-6.30;68.51
84677;BME280;74901;55.024;73.254;2023-12-20T09:22:56;101159.72;;;-6.34;68.81
84677;BME280;74901;55.024;73.254;2023-12-20T09:25:25;101154.94;;;-6.37;68.73
84677;BME280;74901;55.024;73.254;2023-12-20T09:27:54;101160.28;;;-6.37;68.65
84677;BME280;74901;55.024;73.254;2023-12-20T09:30:24;101163.47;;;-6.35;68.38
84677;BME280;74901;55.024;73.254;2023-12-20T09:32:53;101168.81;;;-6.35;68.52
84677;BME280;74901;55.024;73.254;2023-12-20T09:35:22;101161.34;;;-6.43;68.43
84677;BME280;74901;55.024;73.254;2023-12-20T09:37:51;101171.22;;;-6.49;68.77
84677;BME280;74901;55.024;73.254;2023-12-20T09:40:37;101178.19;;;-6.48;68.83
84677;BME280;74901;55.024;73.254;2023-12-20T09:43:17;101177.38;;;-6.48;68.78
84677;BME280;74901;55.024;73.254;2023-12-20T09:45:50;101169.53;;;-6.60;68.67
84677;BME280;74901;55.024;73.254;2023-12-20T09:48:24;101173.06;;;-6.55;68.91
84677;BME280;74901;55.024;73.254;2023-12-20T09:50:55;101168.72;;;-6.66;68.90
84677;BME280;74901;55.024;73.254;2023-12-20T09:53:45;101183.69;;;-6.70;69.24
84677;BME280;74901;55.024;73.254;2023-12-20T09:56:18;101178.34;;;-6.70;69.10
84677;BME280;74901;55.024;73.254;2023-12-20T09:58:57;101177.28;;;-6.74;69.18
84677;BME280;74901;55.024;73.254;2023-12-20T10:01:27;101177.72;;;-6.87;68.97
84677;BME280;74901;55.024;73.254;2023-12-20T10:03:58;101184.94;;;-6.87;69.25
84677;BME280;74901;55.024;73.254;2023-12-20T10:06:29;101174.25;;;-6.92;69.68
84677;BME280;74901;55.024;73.254;2023-12-20T10:08:58;101162.16;;;-7.00;69.54
84677;BME280;74901;55.024;73.254;2023-12-20T10:11:33;101183.88;;;-6.86;69.10
84677;BME280;74901;55.024;73.254;2023-12-20T10:14:06;101186.81;;;-6.88;69.46
84677;BME280;74901;55.024;73.254;2023-12-20T10:16:35;101178.78;;;-6.93;69.43
84677;BME280;74901;55.024;73.254;2023-12-20T10:19:04;101185.97;;;-6.99;69.31
84677;BME280;74901;55.024;73.254;2023-12-20T10:21:33;101184.03;;;-7.03;69.91
84677;BME280;74901;55.024;73.254;2023-12-20T10:24:09;101177.84;;;-7.14;69.70
84677;BME280;74901;55.024;73.254;2023-12-20T10:26:47;101192.75;;;-7.23;69.99
84677;BME280;74901;55.024;73.254;2023-12-20T10:29:20;101187.97;;;-7.16;69.99
84677;BME280;74901;55.024;73.254;2023-12-20T10:31:52;101201.34;;;-7.16;70.11
84677;BME280;74901;55.024;73.254;2023-12-20T10:34:24;101198.97;;;-7.12;70.06
84677;BME280;74901;55.024;73.254;2023-12-20T10:36:54;101185.03;;;-7.19;70.13
84677;BME280;74901;55.024;73.254;2023-12-20T10:39:31;101206.44;;;-7.14;69.86
84677;BME280;74901;55.024;73.254;2023-12-20T10:42:13;101200.84;;;-7.13;70.08
84677;BME280;74901;55.024;73.254;2023-12-20T10:44:46;101202.69;;;-7.13;70.02
84677;BME280;74901;55.024;73.254;2023-12-20T10:47:36;101207.47;;;-7.20;69.84
84677;BME280;74901;55.024;73.254;2023-12-20T10:50:10;101202.38;;;-7.22;69.92
84677;BME280;74901;55.024;73.254;2023-12-20T10:52:40;101189.25;;;-7.28;70.48
84677;BME280;74901;55.024;73.254;2023-12-20T10:55:16;101195.38;;;-7.28;70.12
84677;BME280;74901;55.024;73.254;2023-12-20T10:57:50;101199.38;;;-7.30;70.08
84677;BME280;74901;55.024;73.254;2023-12-20T11:00:19;101206.06;;;-7.28;70.08
84677;BME280;74901;55.024;73.254;2023-12-20T11:02:55;101222.91;;;-7.27;70.65
84677;BME280;74901;55.024;73.254;2023-12-20T11:05:50;101208.72;;;-7.28;70.27
84677;BME280;74901;55.024;73.254;2023-12-20T11:08:39;101213.56;;;-7.25;70.12
84677;BME280;74901;55.024;73.254;2023-12-20T11:11:14;101208.22;;;-7.25;69.96
84677;BME280;74901;55.024;73.254;2023-12-20T11:13:57;101219.41;;;-7.28;70.28
84677;BME280;74901;55.024;73.254;2023-12-20T11:16:29;101167.91;;;-7.65;70.49
84677;BME280;74901;55.024;73.254;2023-12-20T11:19:05;101223.41;;;-7.30;70.38
84677;BME280;74901;55.024;73.254;2023-12-20T11:21:34;101226.91;;;-7.30;70.04
84677;BME280;74901;55.024;73.254;2023-12-20T11:24:06;101232.22;;;-7.35;70.30
84677;BME280;74901;55.024;73.254;2023-12-20T11:26:56;101223.38;;;-7.36;70.57
84677;BME280;74901;55.024;73.254;2023-12-20T11:30:11;101230.34;;;-7.34;70.34
84677;BME280;74901;55.024;73.254;2023-12-20T11:32:50;101231.94;;;-7.33;70.27
84677;BME280;74901;55.024;73.254;2023-12-20T11:35:29;101224.22;;;-7.30;70.74
84677;BME280;74901;55.024;73.254;2023-12-20T11:38:07;101211.94;;;-7.31;70.84
84677;BME280;74901;55.024;73.254;2023-12-20T11:40:37;101216.75;;;-7.28;70.43
84677;BME280;74901;55.024;73.254;2023-12-20T11:43:06;101213.81;;;-7.26;70.38
84677;BME280;74901;55.024;73.254;2023-12-20T11:49:24;101191.34;;;-7.36;70.51
84677;BME280;74901;55.024;73.254;2023-12-20T11:51:56;101235.16;;;-7.31;70.39
84677;BME280;74901;55.024;73.254;2023-12-20T11:54:30;101221.22;;;-7.39;70.59
84677;BME280;74901;55.024;73.254;2023-12-20T11:57:00;101229.22;;;-7.39;70.71
84677;BME280;74901;55.024;73.254;2023-12-20T11:59:29;101233.50;;;-7.38;70.54
84677;BME280;74901;55.024;73.254;2023-12-20T12:01:59;101229.22;;;-7.39;70.62
84677;BME280;74901;55.024;73.254;2023-12-20T12:04:30;101215.59;;;-7.42;70.94
84677;BME280;74901;55.024;73.254;2023-12-20T12:07:00;101227.38;;;-7.38;71.06
84677;BME280;74901;55.024;73.254;2023-12-20T12:09:30;101185.56;;;-7.59;70.87
84677;BME280;74901;55.024;73.254;2023-12-20T12:12:02;101217.94;;;-7.46;70.97
84677;BME280;74901;55.024;73.254;2023-12-20T12:14:31;101221.44;;;-7.45;71.07
84677;BME280;74901;55.024;73.254;2023-12-20T12:17:10;101176.91;;;-7.71;70.94
84677;BME280;74901;55.024;73.254;2023-12-20T12:19:49;101221.47;;;-7.40;70.71
84677;BME280;74901;55.024;73.254;2023-12-20T12:22:21;101224.69;;;-7.38;71.18
84677;BME280;74901;55.024;73.254;2023-12-20T12:24:55;101222.34;;;-7.34;71.24
84677;BME280;74901;55.024;73.254;2023-12-20T12:27:28;101106.94;;;-8.10;70.63
84677;BME280;74901;55.024;73.254;2023-12-20T12:30:04;101226.81;;;-7.40;70.70
84677;BME280;74901;55.024;73.254;2023-12-20T12:32:36;101215.84;;;-7.44;71.05
84677;BME280;74901;55.024;73.254;2023-12-20T12:35:11;101225.44;;;-7.48;71.58
84677;BME280;74901;55.024;73.254;2023-12-20T12:37:41;101236.91;;;-7.47;70.97
84677;BME280;74901;55.024;73.254;2023-12-20T12:40:11;101236.16;;;-7.43;71.22
84677;BME280;74901;55.024;73.254;2023-12-20T12:42:46;101223.56;;;-7.47;71.06
84677;BME280;74901;55.024;73.254;2023-12-20T12:45:20;101203.44;;;-7.60;70.83
84677;BME280;74901;55.024;73.254;2023-12-20T12:47:48;101231.63;;;-7.42;71.06
84677;BME280;74901;55.024;73.254;2023-12-20T12:50:19;101229.69;;;-7.47;70.96
84677;BME280;74901;55.024;73.254;2023-12-20T12:52:52;101227.00;;;-7.47;71.29
84677;BME280;74901;55.024;73.254;2023-12-20T12:55:21;101214.97;;;-7.54;71.22
84677;BME280;74901;55.024;73.254;2023-12-20T12:57:51;101247.03;;;-7.49;71.12
84677;BME280;74901;55.024;73.254;2023-12-20T13:00:20;101228.59;;;-7.51;71.46
84677;BME280;74901;55.024;73.254;2023-12-20T13:02:53;101245.94;;;-7.53;71.34
84677;BME280;74901;55.024;73.254;2023-12-20T13:05:28;101235.28;;;-7.53;71.27
84677;BME280;74901;55.024;73.254;2023-12-20T13:07:59;101230.97;;;-7.54;71.29
84677;BME280;74901;55.024;73.254;2023-12-20T13:10:32;101217.28;;;-7.63;71.02
84677;BME280;74901;55.024;73.254;2023-12-20T13:13:02;101215.66;;;-7.64;71.03
84677;BME280;74901;55.024;73.254;2023-12-20T13:15:31;101235.00;;;-7.52;71.16
84677;BME280;74901;55.024;73.254;2023-12-20T13:18:00;101243.56;;;-7.50;71.31
84677;BME280;74901;55.024;73.254;2023-12-20T13:20:36;101233.94;;;-7.51;71.20